createdAt,value
2024-02-24T00:00:43.951Z,87.67
2024-02-24T00:03:10.852Z,87.64
2024-02-24T00:05:38.046Z,87.62
2024-02-24T00:08:06.521Z,87.72
2024-02-24T00:10:33.736Z,87.66
2024-02-24T00:13:00.795Z,87.69
2024-02-24T00:15:29.164Z,87.62
2024-02-24T00:17:56.149Z,87.69
2024-02-24T00:20:23.386Z,87.67
2024-02-24T00:22:51.765Z,87.65
2024-02-24T00:25:18.979Z,87.63
2024-02-24T00:27:46.020Z,87.60
2024-02-24T00:30:14.535Z,87.58
2024-02-24T00:32:41.704Z,87.67
2024-02-24T00:35:08.711Z,87.65
2024-02-24T00:37:37.084Z,87.70
2024-02-24T00:40:04.247Z,87.63
2024-02-24T00:42:31.378Z,87.63
2024-02-24T00:44:59.663Z,87.68
2024-02-24T00:47:27.008Z,87.64
2024-02-24T00:49:54.462Z,87.73
2024-02-24T00:52:22.738Z,87.83
2024-02-24T00:54:49.801Z,87.78
2024-02-24T00:57:17.185Z,87.89
2024-02-24T00:59:45.510Z,88.00
2024-02-24T01:02:12.573Z,88.03
2024-02-24T01:04:39.848Z,88.04
2024-02-24T01:07:07.380Z,88.22
2024-02-24T01:09:34.722Z,88.13
2024-02-24T01:12:01.802Z,88.13
2024-02-24T01:14:30.165Z,88.13
2024-02-24T01:16:57.513Z,88.10
2024-02-24T01:19:24.838Z,88.05
2024-02-24T01:21:55.219Z,88.04
2024-02-24T01:24:23.151Z,88.01
2024-02-24T01:26:52.694Z,87.99
2024-02-24T01:29:19.931Z,87.96
2024-02-24T01:31:47.351Z,87.93
2024-02-24T01:34:15.829Z,87.84
2024-02-24T01:36:42.892Z,87.79
2024-02-24T01:39:09.821Z,87.70
2024-02-24T01:41:38.214Z,87.66
2024-02-24T01:44:05.623Z,87.65
2024-02-24T01:46:32.900Z,87.51
2024-02-24T01:49:01.309Z,87.51
2024-02-24T01:51:28.535Z,87.40
2024-02-24T01:53:55.897Z,87.30
2024-02-24T01:56:24.098Z,87.23
2024-02-24T01:58:51.332Z,87.22
2024-02-24T02:01:18.474Z,87.07
2024-02-24T02:03:46.959Z,86.97
2024-02-24T02:06:14.211Z,86.96
2024-02-24T02:08:41.076Z,86.90
2024-02-24T02:11:09.468Z,86.81
2024-02-24T02:13:36.868Z,86.72
2024-02-24T02:16:04.022Z,86.71
2024-02-24T02:18:34.581Z,86.70
2024-02-24T02:21:02.722Z,86.78
2024-02-24T02:23:30.818Z,86.76
2024-02-24T02:25:57.930Z,86.77
2024-02-24T02:28:24.889Z,86.76
2024-02-24T02:30:52.951Z,86.81
2024-02-24T02:33:20.174Z,86.86
2024-02-24T02:35:47.607Z,86.92
2024-02-24T02:38:15.905Z,86.94
2024-02-24T02:40:42.891Z,86.88
2024-02-24T02:43:09.836Z,86.98
2024-02-24T02:45:38.285Z,86.97
2024-02-24T02:48:05.243Z,86.99
2024-02-24T02:50:32.491Z,87.05
2024-02-24T02:53:00.788Z,87.02
2024-02-24T02:55:27.723Z,87.06
2024-02-24T02:57:54.683Z,87.13
2024-02-24T03:00:23.347Z,87.24
2024-02-24T03:02:50.255Z,87.15
2024-02-24T03:05:17.387Z,87.19
2024-02-24T03:07:45.667Z,87.07
2024-02-24T03:10:12.599Z,87.03
2024-02-24T03:12:39.744Z,87.07
2024-02-24T03:15:07.991Z,87.17
2024-02-24T03:17:35.511Z,87.10
2024-02-24T03:20:02.600Z,87.09
2024-02-24T03:22:31.080Z,87.00
2024-02-24T03:24:58.128Z,86.55
2024-02-24T03:27:25.187Z,86.74
2024-02-24T03:29:53.369Z,86.67
2024-02-24T03:32:20.296Z,86.17
2024-02-24T03:34:47.335Z,85.91
2024-02-24T03:37:15.503Z,85.50
2024-02-24T03:39:42.446Z,84.75
2024-02-24T03:42:09.601Z,84.31
2024-02-24T03:44:37.793Z,84.00
2024-02-24T03:47:04.743Z,83.42
2024-02-24T03:49:31.824Z,83.46
2024-02-24T03:52:00.146Z,83.00
2024-02-24T03:54:27.210Z,82.96
2024-02-24T03:56:54.145Z,82.83
2024-02-24T03:59:22.673Z,82.87
2024-02-24T04:01:50.045Z,82.49
2024-02-24T04:04:17.078Z,82.39
2024-02-24T04:06:45.663Z,82.16
2024-02-24T04:09:12.861Z,82.25
2024-02-24T04:11:40.004Z,82.19
2024-02-24T04:14:08.537Z,82.15
2024-02-24T04:16:35.639Z,82.44
2024-02-24T04:19:02.924Z,82.29
2024-02-24T04:21:31.252Z,82.63
2024-02-24T04:23:58.457Z,82.44
2024-02-24T04:26:25.590Z,82.36
2024-02-24T04:28:53.926Z,82.75
2024-02-24T04:31:20.871Z,83.02
2024-02-24T04:33:47.901Z,83.33
2024-02-24T04:36:16.400Z,83.22
2024-02-24T04:38:43.461Z,82.95
2024-02-24T04:41:10.440Z,83.49
2024-02-24T04:43:39.187Z,84.33
2024-02-24T04:46:06.340Z,84.74
2024-02-24T04:48:33.549Z,84.82
2024-02-24T04:51:03.365Z,84.99
2024-02-24T04:53:31.214Z,85.53
2024-02-24T04:56:00.768Z,86.17
2024-02-24T04:58:27.822Z,86.06
2024-02-24T05:00:54.905Z,85.39
2024-02-24T05:03:23.328Z,85.82
2024-02-24T05:05:50.443Z,86.22
2024-02-24T05:08:17.746Z,86.86
2024-02-24T05:10:45.903Z,87.25
2024-02-24T05:13:12.845Z,87.04
2024-02-24T05:15:39.580Z,87.13
2024-02-24T05:18:07.732Z,87.47
2024-02-24T05:20:34.809Z,88.09
2024-02-24T05:23:01.652Z,87.70
2024-02-24T05:25:29.811Z,87.47
2024-02-24T05:27:56.770Z,87.61
2024-02-24T05:30:23.927Z,87.80
2024-02-24T05:32:53.537Z,87.75
2024-02-24T05:35:21.927Z,87.80
2024-02-24T05:37:51.191Z,87.93
2024-02-24T05:40:18.151Z,88.06
2024-02-24T05:42:45.080Z,88.04
2024-02-24T05:45:13.145Z,88.14
2024-02-24T05:47:40.177Z,88.24
2024-02-24T05:50:07.577Z,88.29
2024-02-24T05:52:35.833Z,88.25
2024-02-24T05:55:02.791Z,88.48
2024-02-24T05:57:29.822Z,88.35
2024-02-24T05:59:58.019Z,88.05
2024-02-24T06:02:25.056Z,87.90
2024-02-24T06:04:52.096Z,87.55
2024-02-24T06:07:20.462Z,87.71
2024-02-24T06:09:47.643Z,87.81
2024-02-24T06:12:15.372Z,87.72
2024-02-24T06:14:43.694Z,87.67
2024-02-24T06:17:10.828Z,87.48
2024-02-24T06:19:38.032Z,87.22
2024-02-24T06:22:06.427Z,87.16
2024-02-24T06:24:33.499Z,86.98
2024-02-24T06:27:00.750Z,87.18
2024-02-24T06:29:29.088Z,87.07
2024-02-24T06:31:56.260Z,86.94
2024-02-24T06:34:23.548Z,87.11
2024-02-24T06:36:51.874Z,87.18
2024-02-24T06:39:18.620Z,87.20
2024-02-24T06:41:45.606Z,87.18
2024-02-24T06:44:14.169Z,87.17
2024-02-24T06:46:41.110Z,86.95
2024-02-24T06:49:08.443Z,86.89
2024-02-24T06:51:36.723Z,86.55
2024-02-24T06:54:03.984Z,86.52
2024-02-24T06:56:31.504Z,86.37
2024-02-24T06:58:59.661Z,86.12
2024-02-24T07:01:26.556Z,86.24
2024-02-24T07:03:53.522Z,86.18
2024-02-24T07:06:21.793Z,85.71
2024-02-24T07:08:48.748Z,85.88
2024-02-24T07:11:16.078Z,85.57
2024-02-24T07:13:44.363Z,85.26
2024-02-24T07:16:11.617Z,84.78
2024-02-24T07:18:38.888Z,84.86
2024-02-24T07:21:07.448Z,84.68
2024-02-24T07:23:34.636Z,84.40
2024-02-24T07:26:01.850Z,84.10
2024-02-24T07:28:30.095Z,83.64
2024-02-24T07:30:57.153Z,83.47
2024-02-24T07:33:24.086Z,83.13
2024-02-24T07:35:52.878Z,83.35
2024-02-24T07:38:19.964Z,82.99
2024-02-24T07:40:46.976Z,82.95
2024-02-24T07:43:15.555Z,83.11
2024-02-24T07:45:42.420Z,83.23
2024-02-24T07:48:09.578Z,82.84
2024-02-24T07:50:38.076Z,82.70
2024-02-24T07:53:05.220Z,82.63
2024-02-24T07:55:32.268Z,81.39
2024-02-24T07:58:00.611Z,80.84
2024-02-24T08:00:27.965Z,81.47
2024-02-24T08:02:55.049Z,81.56
2024-02-24T08:05:23.417Z,79.90
2024-02-24T08:07:50.512Z,79.80
2024-02-24T08:10:17.492Z,79.51
2024-02-24T08:12:45.743Z,77.59
2024-02-24T08:15:12.680Z,76.58
2024-02-24T08:17:39.935Z,75.77
2024-02-24T08:20:08.318Z,76.04
2024-02-24T08:22:35.676Z,74.60
2024-02-24T08:25:02.510Z,74.33
2024-02-24T08:27:31.099Z,75.31
2024-02-24T08:29:58.132Z,74.28
2024-02-24T08:32:25.441Z,73.66
2024-02-24T08:34:53.978Z,73.79
2024-02-24T08:37:21.025Z,72.86
2024-02-24T08:39:47.982Z,70.22
2024-02-24T08:42:16.646Z,69.43
2024-02-24T08:44:43.503Z,69.66
2024-02-24T08:47:10.493Z,69.53
2024-02-24T08:49:38.765Z,67.99
2024-02-24T08:52:05.757Z,67.72
2024-02-24T08:54:32.826Z,67.66
2024-02-24T08:57:01.234Z,67.54
2024-02-24T08:59:28.465Z,67.53
2024-02-24T09:01:55.594Z,66.95
2024-02-24T09:04:24.079Z,67.19
2024-02-24T09:06:51.321Z,66.76
2024-02-24T09:09:18.565Z,67.09
2024-02-24T09:11:46.813Z,65.43
2024-02-24T09:14:13.897Z,64.46
2024-02-24T09:16:40.827Z,65.14
2024-02-24T09:19:09.076Z,64.66
2024-02-24T09:21:36.156Z,64.61
2024-02-24T09:24:03.063Z,65.29
2024-02-24T09:26:31.363Z,66.27
2024-02-24T09:28:58.309Z,65.22
2024-02-24T09:31:25.152Z,66.06
2024-02-24T09:33:53.419Z,65.96
2024-02-24T09:36:20.479Z,66.08
2024-02-24T09:38:47.587Z,64.97
2024-02-24T09:41:16.010Z,65.68
2024-02-24T09:43:43.165Z,66.66
2024-02-24T09:46:09.994Z,65.81
2024-02-24T09:48:38.360Z,65.37
2024-02-24T09:51:05.648Z,65.49
2024-02-24T09:53:33.076Z,65.48
2024-02-24T09:56:01.448Z,65.53
2024-02-24T09:58:28.508Z,65.53
2024-02-24T10:00:55.545Z,63.50
2024-02-24T10:03:23.835Z,62.56
2024-02-24T10:05:51.046Z,62.90
2024-02-24T10:08:18.341Z,63.23
2024-02-24T10:10:46.520Z,62.89
2024-02-24T10:13:13.665Z,61.73
2024-02-24T10:15:40.489Z,62.29
2024-02-24T10:18:09.477Z,61.96
2024-02-24T10:20:36.670Z,61.26
2024-02-24T10:23:03.884Z,62.56
2024-02-24T10:25:32.272Z,59.95
2024-02-24T10:27:59.424Z,58.59
2024-02-24T10:30:27.068Z,57.83
2024-02-24T10:32:56.126Z,58.86
2024-02-24T10:35:23.456Z,58.65
2024-02-24T10:38:04.043Z,59.50
2024-02-24T10:40:38.942Z,59.88
2024-02-24T10:43:05.960Z,59.49
2024-02-24T10:45:33.008Z,59.76
2024-02-24T10:48:01.503Z,60.00
2024-02-24T10:50:29.081Z,60.39
2024-02-24T10:52:56.118Z,58.63
2024-02-24T10:55:24.470Z,58.63
2024-02-24T10:57:51.962Z,58.72
2024-02-24T11:00:19.065Z,59.41
2024-02-24T11:02:47.393Z,59.02
2024-02-24T11:05:14.751Z,56.86
2024-02-24T11:07:42.065Z,57.31
2024-02-24T11:10:10.346Z,57.23
2024-02-24T11:12:37.669Z,56.66
2024-02-24T11:15:05.004Z,55.16
2024-02-24T11:17:33.391Z,57.44
2024-02-24T11:20:00.668Z,58.23
2024-02-24T11:22:27.706Z,56.13
2024-02-24T11:24:55.784Z,55.74
2024-02-24T11:27:22.730Z,54.67
2024-02-24T11:29:49.847Z,55.15
2024-02-24T11:32:18.533Z,55.50
2024-02-24T11:34:46.544Z,55.79
2024-02-24T11:37:16.237Z,55.95
2024-02-24T11:39:44.800Z,57.71
2024-02-24T11:42:12.121Z,57.50
2024-02-24T11:44:40.506Z,58.07
2024-02-24T11:47:07.593Z,57.96
2024-02-24T11:49:34.599Z,57.44
2024-02-24T11:52:03.031Z,56.37
2024-02-24T11:54:30.164Z,57.00
2024-02-24T11:56:57.151Z,56.76
2024-02-24T11:59:25.550Z,57.03
2024-02-24T12:01:52.662Z,57.04
2024-02-24T12:04:19.521Z,57.51
2024-02-24T12:06:47.836Z,56.34
2024-02-24T12:09:15.122Z,53.70
2024-02-24T12:11:42.231Z,53.17
2024-02-24T12:14:10.538Z,54.70
2024-02-24T12:16:37.486Z,53.45
2024-02-24T12:19:04.598Z,53.05
2024-02-24T12:21:33.004Z,50.25
2024-02-24T12:24:00.164Z,49.67
2024-02-24T12:26:27.462Z,48.07
2024-02-24T12:28:55.770Z,44.87
2024-02-24T12:31:22.733Z,44.08
2024-02-24T12:33:49.747Z,43.76
2024-02-24T12:36:18.460Z,41.42
2024-02-24T12:38:45.456Z,40.04
2024-02-24T12:41:12.552Z,39.39
2024-02-24T12:43:40.854Z,38.54
2024-02-24T12:46:07.778Z,38.24
2024-02-24T12:48:35.031Z,36.96
2024-02-24T12:51:03.574Z,37.85
2024-02-24T12:53:30.678Z,37.82
2024-02-24T12:55:57.797Z,37.49
2024-02-24T12:58:26.092Z,36.37
2024-02-24T13:00:53.033Z,37.15
2024-02-24T13:03:20.000Z,37.21
2024-02-24T13:05:48.322Z,37.91
2024-02-24T13:08:15.469Z,39.01
2024-02-24T13:10:42.629Z,38.07
2024-02-24T13:13:11.040Z,38.01
2024-02-24T13:15:38.074Z,38.52
2024-02-24T13:18:05.561Z,38.02
2024-02-24T13:20:33.980Z,37.98
2024-02-24T13:23:01.047Z,39.11
2024-02-24T13:25:28.126Z,39.55
2024-02-24T13:27:57.319Z,40.25
2024-02-24T13:30:24.296Z,40.64
2024-02-24T13:32:51.740Z,42.50
2024-02-24T13:35:20.201Z,42.27
2024-02-24T13:37:47.238Z,42.36
2024-02-24T13:40:14.495Z,42.01
2024-02-24T13:42:42.758Z,41.73
2024-02-24T13:45:09.743Z,42.10
2024-02-24T13:47:37.013Z,41.02
2024-02-24T13:50:05.527Z,42.15
2024-02-24T13:52:32.380Z,41.17
2024-02-24T13:54:59.312Z,40.82
2024-02-24T13:57:27.698Z,40.75
2024-02-24T13:59:54.842Z,40.72
2024-02-24T14:02:22.199Z,40.81
2024-02-24T14:04:50.594Z,40.95
2024-02-24T14:07:17.578Z,41.83
2024-02-24T14:09:44.763Z,42.19
2024-02-24T14:12:13.298Z,42.71
2024-02-24T14:14:40.443Z,42.17
2024-02-24T14:17:07.332Z,43.61
2024-02-24T14:19:35.733Z,44.07
2024-02-24T14:22:02.668Z,44.00
2024-02-24T14:24:29.914Z,43.97
2024-02-24T14:26:58.334Z,44.80
2024-02-24T14:29:25.442Z,45.23
2024-02-24T14:31:52.289Z,45.75
2024-02-24T14:34:20.718Z,46.34
2024-02-24T14:36:47.918Z,47.08
2024-02-24T14:39:15.456Z,47.89
2024-02-24T14:41:43.661Z,48.59
2024-02-24T14:44:10.580Z,49.24
2024-02-24T14:46:37.421Z,48.54
2024-02-24T14:49:05.977Z,48.62
2024-02-24T14:51:33.052Z,49.42
2024-02-24T14:54:00.242Z,49.91
2024-02-24T14:56:28.499Z,50.53
2024-02-24T14:58:55.530Z,51.16
2024-02-24T15:01:22.541Z,50.72
2024-02-24T15:03:51.002Z,51.45
2024-02-24T15:06:18.505Z,51.68
2024-02-24T15:08:45.525Z,52.21
2024-02-24T15:11:13.890Z,52.74
2024-02-24T15:13:41.081Z,52.41
2024-02-24T15:16:08.039Z,52.51
2024-02-24T15:18:36.701Z,52.74
2024-02-24T15:21:03.988Z,52.11
2024-02-24T15:23:31.048Z,52.46
2024-02-24T15:25:59.317Z,52.13
2024-02-24T15:28:27.079Z,52.13
2024-02-24T15:30:54.205Z,52.55
2024-02-24T15:33:22.671Z,53.17
2024-02-24T15:35:49.697Z,53.80
2024-02-24T15:38:17.016Z,53.91
2024-02-24T15:40:48.433Z,54.12
2024-02-24T15:43:15.573Z,54.12
2024-02-24T15:45:43.538Z,54.22
2024-02-24T15:48:10.544Z,55.05
2024-02-24T15:50:37.605Z,56.10
2024-02-24T15:53:05.728Z,56.93
2024-02-24T15:55:32.863Z,57.78
2024-02-24T15:57:59.798Z,58.17
2024-02-24T16:00:28.073Z,58.72
2024-02-24T16:02:55.264Z,59.26
2024-02-24T16:05:22.432Z,59.79
2024-02-24T16:07:50.769Z,60.23
2024-02-24T16:10:17.802Z,60.77
2024-02-24T16:12:44.838Z,61.22
2024-02-24T16:15:13.132Z,61.46
2024-02-24T16:17:40.143Z,61.44
2024-02-24T16:20:07.238Z,61.80
2024-02-24T16:22:35.378Z,62.04
2024-02-24T16:25:02.324Z,62.48
2024-02-24T16:27:29.270Z,62.92
2024-02-24T16:29:57.467Z,63.37
2024-02-24T16:32:24.506Z,63.70
2024-02-24T16:37:37.162Z,64.32
2024-02-24T16:40:04.290Z,64.78
2024-02-24T16:42:31.420Z,65.21
2024-02-24T16:44:59.650Z,65.52
2024-02-24T16:47:26.800Z,65.73
2024-02-24T16:49:54.078Z,66.21
2024-02-24T16:52:22.348Z,66.36
2024-02-24T16:54:49.317Z,66.66
2024-02-24T16:57:16.804Z,66.75
2024-02-24T16:59:45.477Z,66.70
2024-02-24T17:02:12.594Z,66.75
2024-02-24T17:04:39.439Z,66.98
2024-02-24T17:07:07.990Z,67.11
2024-02-24T17:09:34.887Z,67.21
2024-02-24T17:12:02.081Z,67.37
2024-02-24T17:14:30.531Z,67.66
2024-02-24T17:16:57.599Z,67.95
2024-02-24T17:19:25.103Z,68.15
2024-02-24T17:21:53.484Z,68.30
2024-02-24T17:24:20.433Z,68.55
2024-02-24T17:26:47.540Z,68.63
2024-02-24T17:29:15.961Z,68.76
2024-02-24T17:31:42.891Z,68.86
2024-02-24T17:34:09.794Z,69.06
2024-02-24T17:36:38.213Z,69.04
2024-02-24T17:39:05.210Z,69.14
2024-02-24T17:41:32.193Z,69.26
2024-02-24T17:44:00.581Z,69.38
2024-02-24T17:46:27.596Z,69.43
2024-02-24T17:48:54.931Z,69.51
2024-02-24T17:51:23.255Z,69.55
2024-02-24T17:53:50.244Z,69.61
2024-02-24T17:56:17.365Z,69.66
2024-02-24T17:58:47.904Z,69.92
2024-02-24T18:01:15.784Z,70.03
2024-02-24T18:03:44.256Z,70.19
2024-02-24T18:06:11.514Z,70.40
2024-02-24T18:08:38.646Z,70.63
2024-02-24T18:11:06.896Z,71.02
2024-02-24T18:13:33.842Z,71.22
2024-02-24T18:16:00.709Z,71.25
2024-02-24T18:18:29.178Z,71.37
2024-02-24T18:20:56.542Z,71.33
2024-02-24T18:23:24.223Z,71.20
2024-02-24T18:25:52.365Z,71.40
2024-02-24T18:28:19.405Z,71.44
2024-02-24T18:30:46.338Z,71.57
2024-02-24T18:33:16.130Z,71.83
2024-02-24T18:35:43.127Z,71.99
2024-02-24T18:38:10.367Z,72.25
2024-02-24T18:40:38.828Z,72.54
2024-02-24T18:43:05.791Z,72.59
2024-02-24T18:45:32.929Z,72.68
2024-02-24T18:48:01.911Z,72.68
2024-02-24T18:50:29.092Z,72.74
2024-02-24T18:52:56.211Z,72.95
2024-02-24T18:55:24.598Z,72.84
2024-02-24T18:57:51.540Z,72.89
2024-02-24T19:00:18.655Z,72.89
2024-02-24T19:02:46.982Z,72.82
2024-02-24T19:05:14.801Z,73.00
2024-02-24T19:07:41.974Z,73.11
2024-02-24T19:10:10.563Z,73.19
2024-02-24T19:12:37.407Z,73.19
2024-02-24T19:15:04.462Z,73.53
2024-02-24T19:17:32.814Z,73.27
2024-02-24T19:20:00.086Z,73.40
2024-02-24T19:22:27.222Z,73.45
2024-02-24T19:24:55.501Z,73.76
2024-02-24T19:27:22.454Z,73.63
2024-02-24T19:29:49.423Z,73.66
2024-02-24T19:32:18.122Z,73.54
2024-02-24T19:34:45.233Z,73.74
2024-02-24T19:37:12.485Z,73.91
2024-02-24T19:39:40.758Z,73.90
2024-02-24T19:42:07.764Z,73.98
2024-02-24T19:44:34.924Z,74.16
2024-02-24T19:47:03.644Z,74.34
2024-02-24T19:49:30.835Z,74.53
2024-02-24T19:51:58.132Z,74.46
2024-02-24T19:54:26.516Z,74.57
2024-02-24T19:56:53.613Z,74.91
2024-02-24T19:59:20.805Z,75.16
2024-02-24T20:01:49.103Z,75.36
2024-02-24T20:04:16.292Z,75.37
2024-02-24T20:06:43.535Z,75.49
2024-02-24T20:09:12.096Z,75.73
2024-02-24T20:11:39.254Z,75.74
2024-02-24T20:14:06.657Z,75.77
2024-02-24T20:16:34.937Z,75.82
2024-02-24T20:19:02.068Z,76.03
2024-02-24T20:21:29.336Z,76.21
2024-02-24T20:23:57.679Z,76.17
2024-02-24T20:26:24.900Z,76.18
2024-02-24T20:28:52.034Z,76.36
2024-02-24T20:31:20.393Z,76.43
2024-02-24T20:33:53.485Z,76.53
2024-02-24T20:36:29.235Z,76.73
2024-02-24T20:38:56.380Z,76.84
2024-02-24T20:41:23.726Z,77.10
2024-02-24T20:43:52.174Z,77.39
2024-02-24T20:46:19.154Z,77.53
2024-02-24T20:48:46.307Z,77.58
2024-02-24T20:51:14.702Z,77.74
2024-02-24T20:53:42.062Z,77.74
2024-02-24T20:56:08.974Z,77.62
2024-02-24T20:58:37.221Z,77.53
2024-02-24T21:01:04.384Z,77.47
2024-02-24T21:03:31.639Z,77.71
2024-02-24T21:06:00.028Z,77.92
2024-02-24T21:08:27.242Z,78.10
2024-02-24T21:10:54.336Z,78.18
2024-02-24T21:13:22.923Z,78.14
2024-02-24T21:15:49.857Z,78.16
2024-02-24T21:18:17.037Z,78.26
2024-02-24T21:20:45.529Z,78.40
2024-02-24T21:23:12.653Z,78.40
2024-02-24T21:25:39.996Z,78.41
2024-02-24T21:28:08.160Z,78.62
2024-02-24T21:30:35.224Z,78.73
2024-02-24T21:33:02.416Z,78.79
2024-02-24T21:35:30.885Z,78.77
2024-02-24T21:37:57.999Z,78.62
2024-02-24T21:40:25.027Z,78.63
2024-02-24T21:42:53.212Z,78.68
2024-02-24T21:45:20.159Z,78.70
2024-02-24T21:47:47.551Z,78.67
2024-02-24T21:50:15.880Z,78.76
2024-02-24T21:52:42.718Z,78.77
2024-02-24T21:55:09.663Z,78.83
2024-02-24T21:57:38.153Z,78.72
2024-02-24T22:00:05.290Z,78.66
2024-02-24T22:02:32.365Z,78.70
2024-02-24T22:05:00.632Z,78.92
2024-02-24T22:07:27.663Z,79.12
2024-02-24T22:09:54.603Z,79.40
2024-02-24T22:12:22.818Z,79.32
2024-02-24T22:14:49.740Z,79.35
2024-02-24T22:17:16.674Z,79.34
2024-02-24T22:19:45.195Z,79.34
2024-02-24T22:22:12.195Z,79.13
2024-02-24T22:24:39.651Z,79.10
2024-02-24T22:27:07.859Z,78.91
2024-02-24T22:29:34.943Z,78.82
2024-02-24T22:32:02.124Z,78.67
2024-02-24T22:34:30.556Z,78.50
2024-02-24T22:36:57.966Z,78.45
2024-02-24T22:39:24.692Z,78.34
2024-02-24T22:41:53.299Z,78.33
2024-02-24T22:44:20.691Z,78.25
2024-02-24T22:46:47.795Z,78.20
2024-02-24T22:49:16.300Z,78.14
2024-02-24T22:51:43.630Z,78.14
2024-02-24T22:54:10.813Z,78.18
2024-02-24T22:56:39.391Z,78.14
2024-02-24T22:59:06.514Z,78.13
2024-02-24T23:01:33.541Z,78.12
2024-02-24T23:04:02.572Z,78.21
2024-02-24T23:06:30.020Z,78.12
2024-02-24T23:08:57.094Z,78.11
2024-02-24T23:11:32.847Z,78.03
2024-02-24T23:14:05.583Z,78.27
2024-02-24T23:16:32.534Z,78.01
2024-02-24T23:19:00.241Z,77.92
2024-02-24T23:21:28.928Z,77.97
2024-02-24T23:23:56.335Z,78.00
2024-02-24T23:26:23.395Z,78.03
2024-02-24T23:28:51.959Z,78.14
2024-02-24T23:31:18.996Z,77.97
2024-02-24T23:33:46.257Z,78.00
2024-02-24T23:36:14.870Z,78.18
2024-02-24T23:38:42.003Z,78.04
2024-02-24T23:41:09.012Z,78.13
2024-02-24T23:43:37.622Z,78.27
2024-02-24T23:46:04.856Z,78.33
2024-02-24T23:48:32.379Z,78.52
2024-02-24T23:51:00.821Z,78.44
2024-02-24T23:53:28.151Z,78.48
2024-02-24T23:55:54.976Z,78.57
2024-02-24T23:58:23.451Z,78.51
